Rechercher aéroport 
image banner adimage banner adimage banner ad
image banner ad

L36 - Rio Linda

Situé à Rio Linda, United States

ICAO - L36, IATA -

Données fournies par Airmate  

Information générale

Coordonnées: N38°40'30" W121°26'44"
Élévation : 46 feet MSL.
Variation magnétique : 16° East
Voir autres Aéroports à California

Données opérationnelles

Special qualification required
Heure actuelle UTC:
Heure actuelle locale:
Météo à : KMCC - Mc Clellan Airfield ( 4 km )
METAR: KMCC 251335Z AUTO 15009KT 10SM CLR 17/11 A2989 RMK AO2
TAF: KMCC 251120Z 2512/2612 16009KT P6SM SCT200 FM260100 19012KT P6SM FEW150 BKN250
Voir NOTAMs / SUP AIP / TFR affectant cet aéroport [VIEW]
Fréquences de communication: [VIEW]

Pistes:

Identifiant RWYQFULongueur (ft)Largeur (ft)SurfaceLDA (ft)
17262542ASPH
35262542ASPH

Coordonnées de l'aéroport

Adresse: Rio Linda United States

Vue satellite de L36